createdAt,value
2023-05-03T00:00:03.836Z,990.18
2023-05-03T00:01:03.675Z,990.21
2023-05-03T00:03:03.101Z,990.10
2023-05-03T00:04:03.708Z,990.32
2023-05-03T00:06:03.519Z,990.10
2023-05-03T00:08:03.763Z,990.27
2023-05-03T00:09:03.741Z,990.27
2023-05-03T00:10:04.379Z,990.32
2023-05-03T00:12:03.771Z,990.15
2023-05-03T00:14:03.444Z,990.21
2023-05-03T00:15:03.367Z,990.15
2023-05-03T00:16:03.639Z,990.13
2023-05-03T00:18:03.825Z,990.15
2023-05-03T00:20:04.455Z,990.10
2023-05-03T00:21:03.771Z,990.10
2023-05-03T00:23:03.220Z,990.10
2023-05-03T00:24:03.745Z,990.04
2023-05-03T00:25:03.703Z,989.96
2023-05-03T00:26:03.151Z,990.04
2023-05-03T00:27:03.234Z,990.10
2023-05-03T00:28:03.351Z,990.07
2023-05-03T00:29:02.976Z,990.01
2023-05-03T00:30:04.493Z,990.10
2023-05-03T00:31:03.817Z,990.01
2023-05-03T00:33:03.733Z,990.07
2023-05-03T00:34:03.426Z,989.96
2023-05-03T00:35:03.910Z,990.01
2023-05-03T00:37:03.900Z,989.96
2023-05-03T00:39:02.995Z,989.98
2023-05-03T00:40:04.089Z,989.96
2023-05-03T00:42:03.859Z,989.93
2023-05-03T00:43:03.646Z,989.99
2023-05-03T00:44:03.568Z,989.99
2023-05-03T00:45:03.270Z,989.79
2023-05-03T00:46:17.034Z,989.87
2023-05-03T00:47:03.674Z,989.82
2023-05-03T00:48:03.794Z,989.90
2023-05-03T00:50:04.284Z,989.90
2023-05-03T00:52:03.315Z,989.79
2023-05-03T00:53:03.396Z,989.73
2023-05-03T00:54:03.977Z,989.73
2023-05-03T00:56:02.990Z,989.87
2023-05-03T00:57:03.127Z,989.68
2023-05-03T00:58:03.124Z,989.68
2023-05-03T00:59:03.701Z,989.73
2023-05-03T01:01:03.615Z,989.70
2023-05-03T01:03:04.218Z,989.60
2023-05-03T01:05:02.996Z,989.60
2023-05-03T01:06:03.321Z,989.66
2023-05-03T01:07:03.124Z,989.68
2023-05-03T01:08:03.710Z,989.49
2023-05-03T01:09:03.646Z,989.57
2023-05-03T01:10:04.077Z,989.52
2023-05-03T01:11:03.221Z,989.49
2023-05-03T01:12:03.252Z,989.57
2023-05-03T01:13:03.733Z,989.57
2023-05-03T01:15:03.114Z,989.57
2023-05-03T01:16:03.262Z,989.63
2023-05-03T01:17:03.333Z,989.63
2023-05-03T01:18:03.382Z,989.71
2023-05-03T01:19:03.867Z,989.63
2023-05-03T01:20:04.407Z,989.66
2023-05-03T01:21:03.600Z,989.66
2023-05-03T01:23:03.636Z,989.60
2023-05-03T01:25:03.383Z,989.68
2023-05-03T01:26:02.941Z,989.60
2023-05-03T01:27:03.602Z,989.60
2023-05-03T01:28:03.533Z,989.74
2023-05-03T01:29:03.595Z,989.71
2023-05-03T01:30:04.125Z,989.68
2023-05-03T01:31:02.917Z,989.74
2023-05-03T01:32:03.280Z,989.66
2023-05-03T01:33:03.963Z,989.68
2023-05-03T01:34:03.732Z,989.58
2023-05-03T01:35:03.661Z,989.60
2023-05-03T01:36:03.245Z,989.60
2023-05-03T01:37:03.787Z,989.52
2023-05-03T01:39:03.238Z,989.68
2023-05-03T01:40:04.539Z,989.40
2023-05-03T01:42:03.573Z,989.52
2023-05-03T01:43:03.547Z,989.43
2023-05-03T01:45:03.695Z,989.49
2023-05-03T01:46:03.480Z,989.57
2023-05-03T01:47:03.265Z,989.49
2023-05-03T01:48:04.002Z,989.40
2023-05-03T01:50:03.631Z,989.52
2023-05-03T01:51:03.044Z,989.41
2023-05-03T01:52:03.668Z,989.60
2023-05-03T01:53:03.610Z,989.40
2023-05-03T01:54:03.169Z,989.40
2023-05-03T01:55:03.648Z,989.49
2023-05-03T01:57:03.249Z,989.40
2023-05-03T01:58:03.649Z,989.46
2023-05-03T02:00:04.340Z,989.55
2023-05-03T02:02:03.062Z,989.32
2023-05-03T02:03:03.763Z,989.52
2023-05-03T02:04:03.494Z,989.43
2023-05-03T02:05:03.066Z,989.38
2023-05-03T02:06:03.188Z,989.43
2023-05-03T02:07:03.075Z,989.32
2023-05-03T02:08:03.600Z,989.35
2023-05-03T02:09:03.791Z,989.32
2023-05-03T02:10:04.230Z,989.23
2023-05-03T02:11:03.561Z,989.23
2023-05-03T02:12:03.196Z,989.26
2023-05-03T02:13:03.133Z,989.26
2023-05-03T02:14:03.779Z,989.23
2023-05-03T02:16:03.120Z,989.26
2023-05-03T02:17:03.463Z,989.38
2023-05-03T02:18:03.305Z,989.32
2023-05-03T02:19:03.690Z,989.32
2023-05-03T02:20:04.154Z,989.21
2023-05-03T02:21:03.254Z,989.21
2023-05-03T02:22:03.813Z,989.21
2023-05-03T02:24:03.034Z,989.15
2023-05-03T02:25:03.679Z,989.09
2023-05-03T02:27:03.719Z,989.07
2023-05-03T02:29:03.815Z,988.95
2023-05-03T02:30:03.904Z,989.12
2023-05-03T02:31:03.964Z,989.15
2023-05-03T02:32:03.542Z,989.07
2023-05-03T02:33:03.789Z,989.10
2023-05-03T02:35:02.954Z,988.96
2023-05-03T02:36:03.980Z,989.07
2023-05-03T02:37:03.056Z,989.10
2023-05-03T02:38:03.537Z,989.07
2023-05-03T02:40:03.527Z,989.16
2023-05-03T02:41:03.273Z,989.10
2023-05-03T02:42:03.840Z,989.10
2023-05-03T02:44:03.536Z,989.02
2023-05-03T02:45:03.461Z,989.02
2023-05-03T02:46:03.164Z,989.07
2023-05-03T02:47:03.646Z,989.13
2023-05-03T02:49:02.941Z,988.99
2023-05-03T02:50:04.217Z,988.90
2023-05-03T02:52:03.818Z,988.93
2023-05-03T02:53:03.791Z,988.99
2023-05-03T02:55:03.028Z,988.96
2023-05-03T02:56:03.656Z,988.96
2023-05-03T02:58:03.163Z,989.11
2023-05-03T02:59:03.102Z,989.02
2023-05-03T03:00:03.451Z,989.05
2023-05-03T03:01:03.786Z,988.94
2023-05-03T03:02:03.516Z,988.94
2023-05-03T03:03:03.661Z,988.96
2023-05-03T03:04:03.465Z,989.11
2023-05-03T03:05:03.758Z,989.02
2023-05-03T03:06:03.445Z,989.14
2023-05-03T03:07:02.914Z,989.11
2023-05-03T03:08:03.470Z,989.02
2023-05-03T03:09:03.453Z,989.08
2023-05-03T03:10:04.620Z,989.11
2023-05-03T03:12:03.200Z,988.94
2023-05-03T03:13:03.064Z,989.08
2023-05-03T03:14:03.563Z,989.11
2023-05-03T03:15:03.309Z,989.02
2023-05-03T03:16:03.819Z,988.97
2023-05-03T03:17:03.806Z,989.00
2023-05-03T03:18:03.811Z,989.11
2023-05-03T03:19:03.293Z,989.03
2023-05-03T03:20:03.791Z,989.03
2023-05-03T03:21:03.174Z,989.05
2023-05-03T03:22:03.663Z,989.17
2023-05-03T03:23:03.477Z,989.17
2023-05-03T03:24:03.031Z,989.17
2023-05-03T03:25:03.675Z,989.08
2023-05-03T03:26:03.608Z,989.20
2023-05-03T03:27:03.493Z,989.06
2023-05-03T03:28:02.996Z,989.00
2023-05-03T03:29:03.554Z,989.17
2023-05-03T03:30:04.163Z,989.14
2023-05-03T03:31:03.794Z,989.17
2023-05-03T03:32:03.864Z,989.00
2023-05-03T03:34:03.150Z,989.14
2023-05-03T03:35:03.580Z,988.97
2023-05-03T03:37:03.251Z,989.09
2023-05-03T03:38:03.880Z,989.11
2023-05-03T03:39:03.933Z,989.14
2023-05-03T03:40:04.109Z,989.12
2023-05-03T03:42:03.648Z,989.06
2023-05-03T03:44:03.111Z,989.03
2023-05-03T03:45:03.656Z,989.12
2023-05-03T03:47:03.873Z,989.06
2023-05-03T03:48:03.919Z,989.09
2023-05-03T03:50:03.503Z,989.20
2023-05-03T03:51:03.662Z,989.20
2023-05-03T03:52:03.187Z,989.23
2023-05-03T03:53:03.134Z,989.18
2023-05-03T03:54:03.042Z,989.15
2023-05-03T03:55:03.152Z,989.18
2023-05-03T03:56:03.273Z,989.21
2023-05-03T03:57:03.104Z,989.09
2023-05-03T03:58:03.141Z,989.01
2023-05-03T03:59:03.052Z,989.06
2023-05-03T04:00:04.230Z,989.07
2023-05-03T04:02:03.516Z,989.04
2023-05-03T04:03:07.318Z,988.98
2023-05-03T04:04:03.297Z,989.09
2023-05-03T04:05:03.220Z,989.07
2023-05-03T04:06:03.915Z,989.24
2023-05-03T04:07:03.593Z,989.21
2023-05-03T04:08:03.219Z,989.15
2023-05-03T04:09:03.782Z,989.10
2023-05-03T04:10:04.320Z,989.07
2023-05-03T04:11:04.021Z,989.07
2023-05-03T04:13:03.108Z,989.12
2023-05-03T04:14:03.696Z,989.15
2023-05-03T04:15:03.736Z,989.01
2023-05-03T04:16:05.096Z,989.21
2023-05-03T04:17:03.393Z,989.15
2023-05-03T04:18:04.047Z,989.13
2023-05-03T04:19:03.586Z,989.18
2023-05-03T04:20:03.887Z,989.10
2023-05-03T04:21:03.476Z,989.10
2023-05-03T04:22:03.334Z,989.27
2023-05-03T04:23:03.878Z,989.18
2023-05-03T04:24:03.570Z,989.13
2023-05-03T04:25:03.301Z,989.18
2023-05-03T04:26:05.548Z,989.13
2023-05-03T04:27:03.569Z,989.13
2023-05-03T04:28:03.267Z,989.18
2023-05-03T04:29:03.812Z,989.32
2023-05-03T04:30:04.317Z,989.35
2023-05-03T04:32:03.499Z,989.38
2023-05-03T04:33:03.538Z,989.18
2023-05-03T04:34:03.316Z,989.44
2023-05-03T04:35:03.777Z,989.18
2023-05-03T04:36:03.709Z,989.24
2023-05-03T04:37:03.937Z,989.24
2023-05-03T04:38:03.590Z,989.32
2023-05-03T04:39:03.613Z,989.21
2023-05-03T04:40:03.507Z,989.23
2023-05-03T04:41:03.452Z,989.32
2023-05-03T04:42:03.412Z,989.35
2023-05-03T04:43:03.522Z,989.20
2023-05-03T04:44:03.088Z,989.35
2023-05-03T04:45:03.246Z,989.40
2023-05-03T04:46:03.457Z,989.23
2023-05-03T04:47:03.365Z,989.32
2023-05-03T04:48:03.474Z,989.34
2023-05-03T04:49:03.916Z,989.46
2023-05-03T04:51:03.457Z,989.45
2023-05-03T04:52:03.568Z,989.31
2023-05-03T04:53:03.469Z,989.37
2023-05-03T04:54:03.497Z,989.54
2023-05-03T04:55:03.271Z,989.51
2023-05-03T04:56:03.764Z,989.45
2023-05-03T04:57:03.650Z,989.45
2023-05-03T04:58:04.093Z,989.51
2023-05-03T05:00:04.285Z,989.48
2023-05-03T05:01:03.332Z,989.45
2023-05-03T05:02:03.564Z,989.42
2023-05-03T05:03:03.747Z,989.53
2023-05-03T05:04:04.069Z,989.59
2023-05-03T05:05:03.492Z,989.53
2023-05-03T05:06:03.245Z,989.56
2023-05-03T05:07:03.385Z,989.44
2023-05-03T05:08:03.841Z,989.50
2023-05-03T05:10:03.526Z,989.58
2023-05-03T05:11:03.421Z,989.67
2023-05-03T05:13:03.004Z,989.69
2023-05-03T05:14:02.936Z,989.55
2023-05-03T05:15:03.480Z,989.74
2023-05-03T05:16:03.286Z,989.67
2023-05-03T05:17:03.533Z,989.61
2023-05-03T05:18:03.096Z,989.64
2023-05-03T05:19:02.989Z,989.71
2023-05-03T05:20:04.143Z,989.77
2023-05-03T05:22:03.607Z,989.66
2023-05-03T05:24:03.785Z,989.76
2023-05-03T05:25:03.491Z,989.84
2023-05-03T05:26:03.347Z,989.96
2023-05-03T05:27:03.944Z,990.01
2023-05-03T05:29:03.107Z,989.98
2023-05-03T05:30:04.166Z,989.98
2023-05-03T05:32:03.647Z,990.03
2023-05-03T05:33:03.711Z,990.03
2023-05-03T05:34:03.312Z,990.05
2023-05-03T05:36:03.649Z,990.07
2023-05-03T05:37:03.546Z,990.04
2023-05-03T05:38:03.154Z,989.98
2023-05-03T05:39:03.133Z,990.27
2023-05-03T05:40:04.158Z,990.35
2023-05-03T05:41:05.979Z,990.21
2023-05-03T05:42:03.351Z,990.35
2023-05-03T05:43:03.774Z,990.48
2023-05-03T05:45:03.101Z,990.59
2023-05-03T05:46:03.723Z,990.53
2023-05-03T05:48:03.983Z,990.64
2023-05-03T05:49:03.706Z,990.73
2023-05-03T05:50:17.351Z,990.53
2023-05-03T05:51:03.183Z,990.64
2023-05-03T05:52:03.276Z,990.64
2023-05-03T05:53:03.413Z,990.75
2023-05-03T05:54:03.233Z,990.81
2023-05-03T05:55:03.939Z,990.84
2023-05-03T05:57:03.063Z,990.87
2023-05-03T05:58:03.634Z,990.92
2023-05-03T05:59:03.655Z,990.95
2023-05-03T06:00:04.008Z,990.87
2023-05-03T06:01:03.830Z,990.84
2023-05-03T06:03:03.464Z,991.06
2023-05-03T06:04:03.021Z,990.98
2023-05-03T06:05:07.001Z,991.23
2023-05-03T06:07:03.790Z,991.14
2023-05-03T06:09:23.988Z,991.25
2023-05-03T06:10:03.810Z,991.37
2023-05-03T06:11:03.740Z,991.14
2023-05-03T06:13:02.945Z,991.19
2023-05-03T06:14:02.988Z,991.13
2023-05-03T06:15:03.853Z,991.28
2023-05-03T06:17:03.140Z,991.33
2023-05-03T06:18:03.918Z,991.47
2023-05-03T06:19:03.576Z,991.45
2023-05-03T06:20:03.712Z,991.42
2023-05-03T06:21:03.074Z,991.42
2023-05-03T06:22:03.762Z,991.52
2023-05-03T06:24:03.470Z,991.60
2023-05-03T06:25:03.040Z,991.57
2023-05-03T06:26:03.892Z,991.44
2023-05-03T06:28:03.433Z,991.59
2023-05-03T06:29:03.760Z,991.56
2023-05-03T06:30:04.183Z,991.68
2023-05-03T06:31:03.353Z,991.62
2023-05-03T06:32:02.987Z,991.59
2023-05-03T06:33:03.593Z,991.61
2023-05-03T06:34:03.611Z,991.64
2023-05-03T06:35:03.212Z,991.50
2023-05-03T06:36:03.771Z,991.78
2023-05-03T06:37:04.064Z,991.64
2023-05-03T06:38:03.582Z,991.78
2023-05-03T06:39:02.992Z,991.90
2023-05-03T06:40:03.585Z,991.81
2023-05-03T06:41:03.408Z,991.92
2023-05-03T06:42:03.871Z,991.90
2023-05-03T06:44:03.474Z,992.07
2023-05-03T06:46:03.126Z,991.78
2023-05-03T06:47:04.216Z,991.75
2023-05-03T06:49:03.305Z,991.92
2023-05-03T06:50:04.665Z,991.95
2023-05-03T06:52:03.120Z,991.92
2023-05-03T06:53:03.169Z,991.95
2023-05-03T06:54:03.199Z,991.87
2023-05-03T06:55:03.809Z,991.89
2023-05-03T06:57:03.570Z,991.89
2023-05-03T06:58:03.621Z,991.81
2023-05-03T06:59:03.117Z,991.98
2023-05-03T07:00:04.233Z,991.89
2023-05-03T07:02:03.133Z,991.78
2023-05-03T07:03:03.513Z,991.87
2023-05-03T07:04:03.860Z,992.04
2023-05-03T07:05:03.425Z,991.92
2023-05-03T07:07:03.707Z,991.98
2023-05-03T07:08:03.535Z,992.01
2023-05-03T07:09:03.533Z,992.12
2023-05-03T07:10:03.933Z,992.01
2023-05-03T07:11:03.976Z,992.13
2023-05-03T07:13:03.445Z,992.04
2023-05-03T07:14:03.483Z,992.16
2023-05-03T07:15:03.304Z,992.10
2023-05-03T07:16:04.238Z,992.07
2023-05-03T07:17:03.735Z,992.13
2023-05-03T07:18:03.245Z,992.10
2023-05-03T07:19:03.894Z,992.19
2023-05-03T07:20:03.998Z,992.13
2023-05-03T07:21:03.613Z,992.22
2023-05-03T07:22:03.601Z,992.13
2023-05-03T07:24:03.644Z,992.10
2023-05-03T07:25:03.215Z,992.22
2023-05-03T07:26:02.989Z,992.28
2023-05-03T07:27:03.747Z,992.19
2023-05-03T07:29:03.319Z,992.14
2023-05-03T07:30:05.050Z,992.25
2023-05-03T07:32:03.416Z,992.25
2023-05-03T07:33:03.219Z,992.28
2023-05-03T07:34:03.921Z,992.23
2023-05-03T07:35:03.903Z,992.26
2023-05-03T07:36:03.720Z,992.34
2023-05-03T07:37:03.757Z,992.23
2023-05-03T07:38:03.478Z,992.29
2023-05-03T07:39:03.096Z,992.18
2023-05-03T07:40:04.072Z,992.09
2023-05-03T07:41:03.898Z,992.21
2023-05-03T07:42:03.823Z,992.15
2023-05-03T07:43:03.439Z,992.18
2023-05-03T07:44:03.960Z,992.12
2023-05-03T07:45:03.679Z,992.15
2023-05-03T07:46:03.278Z,992.09
2023-05-03T07:47:03.825Z,992.09
2023-05-03T07:49:02.948Z,992.15
2023-05-03T07:50:04.315Z,992.07
2023-05-03T07:52:03.849Z,992.04
2023-05-03T07:53:03.803Z,991.87
2023-05-03T07:54:03.755Z,992.01
2023-05-03T07:55:03.310Z,991.86
2023-05-03T07:56:03.270Z,991.92
2023-05-03T07:57:03.127Z,991.95
2023-05-03T07:58:03.769Z,991.92
2023-05-03T07:59:09.716Z,991.83
2023-05-03T08:00:04.112Z,991.91
2023-05-03T08:01:03.722Z,991.91
2023-05-03T08:03:03.668Z,991.85
2023-05-03T08:04:03.924Z,991.88
2023-05-03T08:05:04.196Z,991.82
2023-05-03T08:07:03.249Z,991.94
2023-05-03T08:08:03.800Z,991.88
2023-05-03T08:09:03.918Z,991.85
2023-05-03T08:10:04.127Z,991.91
2023-05-03T08:11:03.952Z,991.88
2023-05-03T08:12:03.948Z,991.94
2023-05-03T08:13:03.388Z,991.97
2023-05-03T08:14:03.415Z,991.88
2023-05-03T08:15:02.982Z,991.91
2023-05-03T08:16:03.752Z,991.79
2023-05-03T08:17:03.957Z,991.87
2023-05-03T08:18:03.598Z,991.85
2023-05-03T08:19:03.287Z,991.99
2023-05-03T08:20:03.826Z,991.93
2023-05-03T08:21:03.453Z,991.82
2023-05-03T08:22:03.925Z,991.96
2023-05-03T08:23:03.716Z,991.87
2023-05-03T08:24:03.343Z,991.93
2023-05-03T08:25:02.992Z,991.87
2023-05-03T08:26:04.012Z,992.02
2023-05-03T08:28:03.570Z,991.90
2023-05-03T08:30:03.628Z,992.04
2023-05-03T08:31:03.669Z,991.82
2023-05-03T08:32:03.229Z,991.87
2023-05-03T08:33:04.129Z,991.96
2023-05-03T08:35:03.338Z,991.87
2023-05-03T08:36:03.914Z,991.93
2023-05-03T08:37:03.866Z,991.90
2023-05-03T08:38:03.850Z,991.84
2023-05-03T08:39:03.359Z,991.75
2023-05-03T08:40:04.481Z,991.78
2023-05-03T08:42:03.851Z,991.87
2023-05-03T08:43:03.381Z,991.84
2023-05-03T08:44:03.699Z,991.90
2023-05-03T08:45:03.340Z,991.90
2023-05-03T08:47:03.741Z,991.87
2023-05-03T08:48:03.540Z,991.90
2023-05-03T08:49:02.986Z,991.96
2023-05-03T08:50:04.422Z,992.07
2023-05-03T08:52:03.637Z,991.87
2023-05-03T08:54:03.775Z,991.84
2023-05-03T08:56:03.352Z,991.75
2023-05-03T08:57:03.072Z,991.78
2023-05-03T08:58:03.755Z,991.75
2023-05-03T09:00:03.974Z,991.81
2023-05-03T09:01:03.161Z,991.92
2023-05-03T09:02:03.333Z,991.81
2023-05-03T09:03:03.240Z,991.95
2023-05-03T09:04:04.125Z,991.86
2023-05-03T09:06:03.809Z,991.89
2023-05-03T09:08:02.929Z,991.81
2023-05-03T09:09:03.469Z,991.92
2023-05-03T09:10:03.785Z,991.80
2023-05-03T09:11:03.254Z,991.80
2023-05-03T09:12:03.856Z,991.92
2023-05-03T09:13:03.860Z,991.83
2023-05-03T09:14:03.827Z,991.83
2023-05-03T09:15:03.347Z,991.92
2023-05-03T09:16:03.666Z,991.69
2023-05-03T09:17:03.357Z,991.86
2023-05-03T09:18:03.457Z,991.80
2023-05-03T09:19:03.638Z,991.89
2023-05-03T09:20:04.145Z,991.89
2023-05-03T09:21:03.939Z,991.83
2023-05-03T09:23:03.609Z,991.83
2023-05-03T09:24:03.169Z,991.80
2023-05-03T09:25:03.870Z,991.95
2023-05-03T09:27:03.091Z,991.98
2023-05-03T09:28:03.518Z,991.92
2023-05-03T09:29:03.664Z,991.86
2023-05-03T09:30:04.014Z,991.86
2023-05-03T09:31:03.774Z,991.81
2023-05-03T09:32:03.360Z,991.81
2023-05-03T09:33:03.867Z,991.75
2023-05-03T09:34:03.312Z,991.81
2023-05-03T09:35:04.351Z,991.86
2023-05-03T09:36:03.884Z,991.86
2023-05-03T09:38:03.470Z,991.69
2023-05-03T09:39:03.014Z,991.84
2023-05-03T09:40:04.022Z,991.78
2023-05-03T09:41:03.742Z,991.78
2023-05-03T09:42:03.489Z,991.55
2023-05-03T09:43:05.186Z,991.81
2023-05-03T09:44:03.535Z,991.78
2023-05-03T09:45:03.933Z,991.72
2023-05-03T09:46:03.486Z,991.66
2023-05-03T09:47:03.532Z,991.72
2023-05-03T09:48:03.033Z,991.66
2023-05-03T09:49:03.144Z,991.66
2023-05-03T09:50:03.852Z,991.52
2023-05-03T09:52:03.155Z,991.75
2023-05-03T09:53:04.564Z,991.66
2023-05-03T09:55:03.559Z,991.63
2023-05-03T09:56:03.353Z,991.66
2023-05-03T09:57:03.752Z,991.66
2023-05-03T09:58:03.735Z,991.69
2023-05-03T09:59:03.533Z,991.69
2023-05-03T10:01:03.492Z,991.57
2023-05-03T10:02:03.985Z,991.57
2023-05-03T10:04:03.794Z,991.66
2023-05-03T10:05:03.704Z,991.57
2023-05-03T10:06:03.628Z,991.72
2023-05-03T10:07:03.414Z,991.66
2023-05-03T10:08:02.965Z,991.54
2023-05-03T10:09:03.735Z,991.48
2023-05-03T10:11:03.856Z,991.48
2023-05-03T10:13:03.124Z,991.35
2023-05-03T10:14:03.184Z,991.44
2023-05-03T10:15:04.328Z,991.38
2023-05-03T10:17:03.196Z,991.35
2023-05-03T10:18:03.967Z,991.43
2023-05-03T10:20:03.044Z,991.38
2023-05-03T10:21:03.556Z,991.38
2023-05-03T10:22:03.386Z,991.38
2023-05-03T10:23:03.634Z,991.38
2023-05-03T10:24:03.093Z,991.32
2023-05-03T10:25:04.285Z,991.37
2023-05-03T10:27:03.188Z,991.23
2023-05-03T10:28:03.825Z,991.23
2023-05-03T10:29:03.493Z,991.31
2023-05-03T10:30:03.407Z,991.31
2023-05-03T10:31:03.380Z,991.20
2023-05-03T10:32:03.979Z,991.17
2023-05-03T10:34:02.997Z,991.28
2023-05-03T10:35:04.744Z,991.31
2023-05-03T10:36:03.439Z,991.20
2023-05-03T10:37:03.042Z,991.31
2023-05-03T10:38:03.503Z,991.34
2023-05-03T10:40:03.128Z,991.22
2023-05-03T10:41:03.724Z,991.23
2023-05-03T10:42:03.415Z,991.23
2023-05-03T10:43:03.989Z,991.20
2023-05-03T10:45:03.652Z,991.31
2023-05-03T10:46:03.725Z,991.34
2023-05-03T10:48:03.842Z,991.31
2023-05-03T10:50:03.013Z,991.40
2023-05-03T10:51:03.130Z,991.28
2023-05-03T10:52:03.708Z,991.46
2023-05-03T10:53:03.714Z,991.37
2023-05-03T10:55:04.354Z,991.25
2023-05-03T10:57:03.701Z,991.14
2023-05-03T10:58:03.777Z,991.25
2023-05-03T10:59:03.282Z,991.37
2023-05-03T11:00:03.970Z,991.14
2023-05-03T11:01:03.687Z,991.31
2023-05-03T11:02:03.962Z,991.19
2023-05-03T11:04:03.622Z,991.22
2023-05-03T11:05:04.115Z,991.25
2023-05-03T11:06:03.509Z,991.25
2023-05-03T11:07:03.608Z,991.37
2023-05-03T11:08:03.186Z,991.22
2023-05-03T11:09:02.947Z,991.31
2023-05-03T11:10:03.760Z,991.28
2023-05-03T11:12:02.927Z,991.47
2023-05-03T11:13:03.774Z,991.22
2023-05-03T11:14:03.823Z,991.34
2023-05-03T11:15:04.135Z,991.22
2023-05-03T11:16:03.947Z,991.37
2023-05-03T11:17:03.977Z,991.25
2023-05-03T11:18:03.520Z,991.28
2023-05-03T11:19:03.167Z,991.28
2023-05-03T11:20:03.729Z,991.28
2023-05-03T11:21:03.434Z,991.22
2023-05-03T11:22:03.990Z,991.31
2023-05-03T11:24:03.523Z,991.36
2023-05-03T11:25:03.942Z,991.28
2023-05-03T11:26:03.705Z,991.33
2023-05-03T11:27:08.886Z,991.39
2023-05-03T11:29:03.089Z,991.28
2023-05-03T11:30:03.542Z,991.42
2023-05-03T11:32:03.846Z,991.31
2023-05-03T11:34:03.012Z,991.39
2023-05-03T11:35:03.628Z,991.28
2023-05-03T11:36:03.903Z,991.27
2023-05-03T11:38:03.098Z,991.04
2023-05-03T11:39:03.202Z,991.16
2023-05-03T11:40:04.054Z,991.33
2023-05-03T11:42:03.045Z,991.15
2023-05-03T11:43:03.641Z,991.18
2023-05-03T11:44:18.060Z,991.24
2023-05-03T11:45:05.020Z,991.35
2023-05-03T11:46:03.554Z,991.15
2023-05-03T11:47:04.146Z,991.18
2023-05-03T11:48:03.842Z,991.24
2023-05-03T11:49:03.634Z,991.12
2023-05-03T11:50:03.717Z,991.21
2023-05-03T11:51:03.232Z,991.09
2023-05-03T11:52:03.730Z,991.09
2023-05-03T11:54:24.730Z,991.24
2023-05-03T11:55:03.621Z,991.21
2023-05-03T11:56:03.496Z,991.21
2023-05-03T11:57:03.687Z,991.09
2023-05-03T11:58:03.662Z,991.18
2023-05-03T11:59:03.171Z,991.09
2023-05-03T12:00:03.757Z,991.21
2023-05-03T12:01:03.775Z,991.21
2023-05-03T12:02:03.654Z,991.29
2023-05-03T12:04:04.052Z,991.32
2023-05-03T12:05:04.717Z,991.26
2023-05-03T12:06:05.475Z,991.29
2023-05-03T12:07:05.537Z,991.18
2023-05-03T12:08:05.368Z,991.27
2023-05-03T12:09:03.995Z,991.35
2023-05-03T12:10:14.922Z,991.32
2023-05-03T12:12:06.785Z,991.29
2023-05-03T12:14:03.965Z,991.30
2023-05-03T12:15:07.558Z,991.30
2023-05-03T12:16:14.490Z,991.32
2023-05-03T12:17:03.435Z,991.38
2023-05-03T12:18:05.503Z,991.38
2023-05-03T12:19:04.168Z,991.35
2023-05-03T12:20:33.490Z,991.35
2023-05-03T12:21:30.656Z,991.27
2023-05-03T12:22:23.342Z,991.44
2023-05-03T12:24:06.404Z,991.35
2023-05-03T12:26:05.924Z,991.41
2023-05-03T12:28:20.680Z,991.49
2023-05-03T12:29:04.145Z,991.35
2023-05-03T12:30:03.962Z,991.32
2023-05-03T12:31:05.755Z,991.18
2023-05-03T12:33:05.544Z,991.35
2023-05-03T12:34:34.496Z,991.21
2023-05-03T12:36:04.871Z,991.35
2023-05-03T12:37:06.306Z,991.27
2023-05-03T12:38:03.814Z,991.32
2023-05-03T12:39:03.588Z,991.35
2023-05-03T12:40:33.139Z,991.21
2023-05-03T12:41:03.812Z,991.55
2023-05-03T12:42:08.423Z,991.33
2023-05-03T12:43:03.727Z,991.35
2023-05-03T12:44:03.344Z,991.24
2023-05-03T12:46:32.030Z,991.33
2023-05-03T12:48:04.270Z,991.30
2023-05-03T12:49:08.637Z,991.33
2023-05-03T12:50:06.745Z,991.41
2023-05-03T12:51:20.152Z,991.35
2023-05-03T12:52:35.129Z,991.30
2023-05-03T12:53:08.401Z,991.27
2023-05-03T12:54:03.549Z,991.15
2023-05-03T12:55:04.923Z,991.24
2023-05-03T12:56:06.868Z,991.38
2023-05-03T12:57:09.263Z,991.32
2023-05-03T12:58:35.973Z,991.38
2023-05-03T12:59:41.593Z,991.32
2023-05-03T13:00:05.034Z,991.21
2023-05-03T13:03:12.638Z,991.21
2023-05-03T13:03:20.255Z,991.12
2023-05-03T13:04:36.740Z,991.09
2023-05-03T13:05:21.014Z,991.12
2023-05-03T13:06:13.752Z,991.26
2023-05-03T13:08:10.278Z,991.26
2023-05-03T13:09:04.443Z,991.21
2023-05-03T13:12:03.726Z,991.32
2023-05-03T13:13:03.248Z,991.26
2023-05-03T13:14:03.762Z,991.26
2023-05-03T13:15:04.329Z,991.24
2023-05-03T13:16:03.450Z,991.24
2023-05-03T13:17:03.589Z,991.21
2023-05-03T13:18:03.974Z,991.12
2023-05-03T13:19:03.846Z,991.12
2023-05-03T13:20:03.491Z,991.32
2023-05-03T13:21:03.664Z,991.18
2023-05-03T13:22:03.264Z,991.24
2023-05-03T13:23:03.841Z,991.04
2023-05-03T13:24:03.596Z,991.03
2023-05-03T13:25:04.448Z,990.92
2023-05-03T13:27:03.518Z,991.09
2023-05-03T13:28:03.324Z,991.03
2023-05-03T13:29:03.947Z,990.97
2023-05-03T13:31:03.902Z,990.97
2023-05-03T13:33:03.559Z,991.09
2023-05-03T13:34:03.185Z,990.97
2023-05-03T13:35:04.384Z,990.91
2023-05-03T13:37:03.860Z,990.92
2023-05-03T13:38:03.989Z,990.97
2023-05-03T13:39:03.423Z,991.06
2023-05-03T13:40:03.988Z,990.97
2023-05-03T13:41:03.943Z,990.74
2023-05-03T13:43:03.818Z,990.80
2023-05-03T13:44:03.750Z,990.80
2023-05-03T13:45:03.339Z,990.77
2023-05-03T13:46:03.607Z,990.62
2023-05-03T13:47:03.552Z,990.54
2023-05-03T13:48:19.402Z,990.59
2023-05-03T13:49:03.825Z,990.62
2023-05-03T13:50:03.761Z,990.71
2023-05-03T13:51:03.655Z,990.68
2023-05-03T13:52:03.660Z,990.71
2023-05-03T13:53:03.398Z,990.71
2023-05-03T13:54:03.794Z,990.54
2023-05-03T13:55:03.547Z,990.68
2023-05-03T13:56:03.493Z,990.68
2023-05-03T13:57:03.199Z,990.51
2023-05-03T13:58:03.886Z,990.54
2023-05-03T14:00:03.783Z,990.62
2023-05-03T14:01:03.604Z,990.62
2023-05-03T14:02:03.287Z,990.51
2023-05-03T14:03:03.886Z,990.60
2023-05-03T14:04:03.922Z,990.43
2023-05-03T14:05:03.962Z,990.65
2023-05-03T14:07:03.902Z,990.37
2023-05-03T14:09:03.485Z,990.54
2023-05-03T14:10:03.896Z,990.48
2023-05-03T14:11:06.686Z,990.54
2023-05-03T14:12:03.909Z,990.54
2023-05-03T14:13:04.100Z,990.54
2023-05-03T14:15:03.690Z,990.51
2023-05-03T14:17:03.312Z,990.66
2023-05-03T14:18:06.603Z,990.68
2023-05-03T14:19:02.984Z,990.60
2023-05-03T14:20:04.081Z,990.57
2023-05-03T14:22:03.947Z,990.48
2023-05-03T14:23:03.544Z,990.54
2023-05-03T14:24:03.561Z,990.41
2023-05-03T14:25:03.278Z,990.38
2023-05-03T14:26:03.248Z,990.35
2023-05-03T14:27:03.297Z,990.35
2023-05-03T14:28:03.761Z,990.43
2023-05-03T14:30:03.862Z,990.57
2023-05-03T14:31:03.315Z,990.41
2023-05-03T14:32:02.994Z,990.38
2023-05-03T14:33:03.682Z,990.48
2023-05-03T14:34:03.692Z,990.51
2023-05-03T14:35:03.329Z,990.54
2023-05-03T14:36:03.916Z,990.35
2023-05-03T14:38:03.402Z,990.41
2023-05-03T14:39:03.348Z,990.44
2023-05-03T14:40:03.627Z,990.44
2023-05-03T14:41:03.355Z,990.41
2023-05-03T14:43:03.569Z,990.38
2023-05-03T14:44:03.419Z,990.44
2023-05-03T14:45:03.637Z,990.35
2023-05-03T14:46:03.372Z,990.49
2023-05-03T14:47:03.197Z,990.38
2023-05-03T14:48:03.035Z,990.44
2023-05-03T14:49:03.610Z,990.35
2023-05-03T14:50:03.789Z,990.41
2023-05-03T14:51:03.466Z,990.35
2023-05-03T14:52:03.061Z,990.29
2023-05-03T14:53:03.118Z,990.32
2023-05-03T14:54:03.129Z,990.35
2023-05-03T14:55:03.495Z,990.44
2023-05-03T14:56:03.527Z,990.32
2023-05-03T14:57:02.980Z,990.32
2023-05-03T14:58:03.698Z,990.38